Terminal Aerodrome Forecast
Issued by NWS

Home | Current Version | Previous Version | Text Only | Print | Product List | Glossary On
Versions: 1 2 3 4 5 6 7 8 9 10 11 12 13 14 15 16 17 18 19
000
FTUS43 KMQT 262335
TAFSAW
TAF
KSAW 262335Z 2700/2724 17010KT 3SM -SN OVC013
     FM270100 16007KT 1 1/2SM -SN BR OVC012
     FM270700 15004KT 6SM BR OVC008
     FM271400 17005KT P6SM OVC012
     FM272100 18005KT P6SM OVC020=

USA.gov is the U.S. government's official web portal to all federal, state and local government web resources and services.